<?xml version="1.0" encoding="UTF-8" standalone="no" ?>
<gpx xmlns="http://www.topografix.com/GPX/1/1" xmlns:xsi="http://www.w3.org/2001/XMLSchema-instance" xsi:schemaLocation="http://www.topografix.com/GPX/1/1 http://www.topografix.com/GPX/1/1/gpx.xsd" version="1.1" creator="VisuGPX - https://www.visugpx.com">
  <metadata>
    <name>Dijon - Nuits</name>
    <desc><![CDATA[32 kms / 630 m de dénivelé ]]></desc>
  </metadata>
  <trk>
    <name><![CDATA[DIJON  - NUITS-7113462]]></name>
    <extensions>
      <line xmlns="http://www.topografix.com/GPX/gpx_style/0/2">
        <color>0000FF</color>
        <width>4</width>
      </line>
    </extensions>
    <trkseg>
      <trkpt lat="47.32375" lon="5.02914">
        <ele>250</ele>
        <time>2024-05-01T19:14:26Z</time>
      </trkpt>
      <trkpt lat="47.3225" lon="5.03005">
        <ele>247</ele>
        <time>2024-05-01T19:14:59Z</time>
      </trkpt>
      <trkpt lat="47.32183" lon="5.02949">
        <ele>244</ele>
        <time>2024-05-01T19:15:17Z</time>
      </trkpt>
      <trkpt lat="47.32067" lon="5.03013">
        <ele>243</ele>
        <time>2024-05-01T19:15:45Z</time>
      </trkpt>
      <trkpt lat="47.31895" lon="5.0312">
        <ele>242</ele>
        <time>2024-05-01T19:16:29Z</time>
      </trkpt>
      <trkpt lat="47.31776" lon="5.03146">
        <ele>241</ele>
        <time>2024-05-01T19:16:57Z</time>
      </trkpt>
      <trkpt lat="47.3152" lon="5.02966">
        <ele>237</ele>
        <time>2024-05-01T19:18:03Z</time>
      </trkpt>
      <trkpt lat="47.31654" lon="5.02541">
        <ele>237</ele>
        <time>2024-05-01T19:19:18Z</time>
      </trkpt>
      <trkpt lat="47.31567" lon="5.024">
        <ele>238</ele>
        <time>2024-05-01T19:19:48Z</time>
      </trkpt>
      <trkpt lat="47.31485" lon="5.02331">
        <ele>239</ele>
        <time>2024-05-01T19:20:10Z</time>
      </trkpt>
      <trkpt lat="47.31401" lon="5.01953">
        <ele>237</ele>
        <time>2024-05-01T19:21:13Z</time>
      </trkpt>
      <trkpt lat="47.31345" lon="5.01395">
        <ele>244</ele>
        <time>2024-05-01T19:22:42Z</time>
      </trkpt>
      <trkpt lat="47.31244" lon="5.00889">
        <ele>253</ele>
        <time>2024-05-01T19:24:06Z</time>
      </trkpt>
      <trkpt lat="47.31217" lon="5.00644">
        <ele>261</ele>
        <time>2024-05-01T19:24:45Z</time>
      </trkpt>
      <trkpt lat="47.31191" lon="5.00451">
        <ele>269</ele>
        <time>2024-05-01T19:25:16Z</time>
      </trkpt>
      <trkpt lat="47.31121" lon="5.00425">
        <ele>269</ele>
        <time>2024-05-01T19:25:33Z</time>
      </trkpt>
      <trkpt lat="47.31017" lon="5.00258">
        <ele>273</ele>
        <time>2024-05-01T19:26:09Z</time>
      </trkpt>
      <trkpt lat="47.30915" lon="5.00151">
        <ele>282</ele>
        <time>2024-05-01T19:26:38Z</time>
      </trkpt>
      <trkpt lat="47.30758" lon="5.00215">
        <ele>290</ele>
        <time>2024-05-01T19:27:16Z</time>
      </trkpt>
      <trkpt lat="47.30606" lon="5.00185">
        <ele>305</ele>
        <time>2024-05-01T19:27:52Z</time>
      </trkpt>
      <trkpt lat="47.30414" lon="5.00237">
        <ele>307</ele>
        <time>2024-05-01T19:28:38Z</time>
      </trkpt>
      <trkpt lat="47.30333" lon="5.00284">
        <ele>300</ele>
        <time>2024-05-01T19:28:58Z</time>
      </trkpt>
      <trkpt lat="47.30219" lon="5.00267">
        <ele>296</ele>
        <time>2024-05-01T19:29:25Z</time>
      </trkpt>
      <trkpt lat="47.30212" lon="5.00249">
        <ele>298</ele>
        <time>2024-05-01T19:29:28Z</time>
      </trkpt>
      <trkpt lat="47.30156" lon="5.00248">
        <ele>294</ele>
        <time>2024-05-01T19:29:41Z</time>
      </trkpt>
      <trkpt lat="47.30105" lon="5.00205">
        <ele>295</ele>
        <time>2024-05-01T19:29:55Z</time>
      </trkpt>
      <trkpt lat="47.3003" lon="5.00126">
        <ele>293</ele>
        <time>2024-05-01T19:30:16Z</time>
      </trkpt>
      <trkpt lat="47.29882" lon="5.00116">
        <ele>284</ele>
        <time>2024-05-01T19:30:51Z</time>
      </trkpt>
      <trkpt lat="47.29611" lon="5.00043">
        <ele>277</ele>
        <time>2024-05-01T19:31:55Z</time>
      </trkpt>
      <trkpt lat="47.29531" lon="5.00045">
        <ele>276</ele>
        <time>2024-05-01T19:32:14Z</time>
      </trkpt>
      <trkpt lat="47.29477" lon="5.00027">
        <ele>276</ele>
        <time>2024-05-01T19:32:27Z</time>
      </trkpt>
      <trkpt lat="47.29422" lon="5.00036">
        <ele>276</ele>
        <time>2024-05-01T19:32:40Z</time>
      </trkpt>
      <trkpt lat="47.29314" lon="5.00014">
        <ele>279</ele>
        <time>2024-05-01T19:33:05Z</time>
      </trkpt>
      <trkpt lat="47.29328" lon="4.99958">
        <ele>280</ele>
        <time>2024-05-01T19:33:15Z</time>
      </trkpt>
      <trkpt lat="47.29255" lon="4.99933">
        <ele>282</ele>
        <time>2024-05-01T19:33:32Z</time>
      </trkpt>
      <trkpt lat="47.29231" lon="4.99928">
        <ele>282</ele>
        <time>2024-05-01T19:33:38Z</time>
      </trkpt>
      <trkpt lat="47.29225" lon="4.99945">
        <ele>281</ele>
        <time>2024-05-01T19:33:41Z</time>
      </trkpt>
      <trkpt lat="47.29207" lon="5.0004">
        <ele>277</ele>
        <time>2024-05-01T19:33:56Z</time>
      </trkpt>
      <trkpt lat="47.29145" lon="5.00013">
        <ele>275</ele>
        <time>2024-05-01T19:34:12Z</time>
      </trkpt>
      <trkpt lat="47.29077" lon="4.99988">
        <ele>272</ele>
        <time>2024-05-01T19:34:28Z</time>
      </trkpt>
      <trkpt lat="47.29032" lon="4.9995">
        <ele>272</ele>
        <time>2024-05-01T19:34:40Z</time>
      </trkpt>
      <trkpt lat="47.28959" lon="4.999">
        <ele>274</ele>
        <time>2024-05-01T19:34:59Z</time>
      </trkpt>
      <trkpt lat="47.28893" lon="4.99873">
        <ele>275</ele>
        <time>2024-05-01T19:35:15Z</time>
      </trkpt>
      <trkpt lat="47.28756" lon="4.99811">
        <ele>277</ele>
        <time>2024-05-01T19:35:48Z</time>
      </trkpt>
      <trkpt lat="47.28734" lon="4.99799">
        <ele>278</ele>
        <time>2024-05-01T19:35:54Z</time>
      </trkpt>
      <trkpt lat="47.28673" lon="4.99751">
        <ele>278</ele>
        <time>2024-05-01T19:36:10Z</time>
      </trkpt>
      <trkpt lat="47.28591" lon="4.99698">
        <ele>278</ele>
        <time>2024-05-01T19:36:31Z</time>
      </trkpt>
      <trkpt lat="47.28551" lon="4.99676">
        <ele>278</ele>
        <time>2024-05-01T19:36:41Z</time>
      </trkpt>
      <trkpt lat="47.28542" lon="4.99657">
        <ele>279</ele>
        <time>2024-05-01T19:36:44Z</time>
      </trkpt>
      <trkpt lat="47.28543" lon="4.99633">
        <ele>281</ele>
        <time>2024-05-01T19:36:48Z</time>
      </trkpt>
      <trkpt lat="47.28517" lon="4.99616">
        <ele>280</ele>
        <time>2024-05-01T19:36:55Z</time>
      </trkpt>
      <trkpt lat="47.28484" lon="4.99581">
        <ele>280</ele>
        <time>2024-05-01T19:37:04Z</time>
      </trkpt>
      <trkpt lat="47.28471" lon="4.99545">
        <ele>282</ele>
        <time>2024-05-01T19:37:11Z</time>
      </trkpt>
      <trkpt lat="47.28438" lon="4.99496">
        <ele>283</ele>
        <time>2024-05-01T19:37:22Z</time>
      </trkpt>
      <trkpt lat="47.28404" lon="4.99451">
        <ele>283</ele>
        <time>2024-05-01T19:37:32Z</time>
      </trkpt>
      <trkpt lat="47.2835" lon="4.99389">
        <ele>285</ele>
        <time>2024-05-01T19:37:48Z</time>
      </trkpt>
      <trkpt lat="47.28306" lon="4.99323">
        <ele>285</ele>
        <time>2024-05-01T19:38:03Z</time>
      </trkpt>
      <trkpt lat="47.28272" lon="4.9928">
        <ele>284</ele>
        <time>2024-05-01T19:38:14Z</time>
      </trkpt>
      <trkpt lat="47.28302" lon="4.99215">
        <ele>288</ele>
        <time>2024-05-01T19:38:26Z</time>
      </trkpt>
      <trkpt lat="47.28302" lon="4.99173">
        <ele>288</ele>
        <time>2024-05-01T19:38:33Z</time>
      </trkpt>
      <trkpt lat="47.28318" lon="4.99149">
        <ele>291</ele>
        <time>2024-05-01T19:38:38Z</time>
      </trkpt>
      <trkpt lat="47.2834" lon="4.99123">
        <ele>296</ele>
        <time>2024-05-01T19:38:45Z</time>
      </trkpt>
      <trkpt lat="47.28337" lon="4.99072">
        <ele>298</ele>
        <time>2024-05-01T19:38:53Z</time>
      </trkpt>
      <trkpt lat="47.28288" lon="4.98843">
        <ele>298</ele>
        <time>2024-05-01T19:39:31Z</time>
      </trkpt>
      <trkpt lat="47.28259" lon="4.9877">
        <ele>294</ele>
        <time>2024-05-01T19:39:44Z</time>
      </trkpt>
      <trkpt lat="47.28224" lon="4.98734">
        <ele>292</ele>
        <time>2024-05-01T19:39:54Z</time>
      </trkpt>
      <trkpt lat="47.282" lon="4.98693">
        <ele>291</ele>
        <time>2024-05-01T19:40:03Z</time>
      </trkpt>
      <trkpt lat="47.28189" lon="4.98645">
        <ele>291</ele>
        <time>2024-05-01T19:40:11Z</time>
      </trkpt>
      <trkpt lat="47.28164" lon="4.98627">
        <ele>290</ele>
        <time>2024-05-01T19:40:17Z</time>
      </trkpt>
      <trkpt lat="47.28125" lon="4.98606">
        <ele>288</ele>
        <time>2024-05-01T19:40:27Z</time>
      </trkpt>
      <trkpt lat="47.28111" lon="4.98565">
        <ele>288</ele>
        <time>2024-05-01T19:40:34Z</time>
      </trkpt>
      <trkpt lat="47.28096" lon="4.98531">
        <ele>288</ele>
        <time>2024-05-01T19:40:41Z</time>
      </trkpt>
      <trkpt lat="47.28078" lon="4.98532">
        <ele>287</ele>
        <time>2024-05-01T19:40:45Z</time>
      </trkpt>
      <trkpt lat="47.28011" lon="4.98548">
        <ele>286</ele>
        <time>2024-05-01T19:41:01Z</time>
      </trkpt>
      <trkpt lat="47.2794" lon="4.9858">
        <ele>284</ele>
        <time>2024-05-01T19:41:18Z</time>
      </trkpt>
      <trkpt lat="47.27884" lon="4.98563">
        <ele>285</ele>
        <time>2024-05-01T19:41:31Z</time>
      </trkpt>
      <trkpt lat="47.27848" lon="4.98542">
        <ele>285</ele>
        <time>2024-05-01T19:41:40Z</time>
      </trkpt>
      <trkpt lat="47.27779" lon="4.98525">
        <ele>285</ele>
        <time>2024-05-01T19:41:57Z</time>
      </trkpt>
      <trkpt lat="47.27671" lon="4.98613">
        <ele>281</ele>
        <time>2024-05-01T19:42:26Z</time>
      </trkpt>
      <trkpt lat="47.27599" lon="4.98667">
        <ele>279</ele>
        <time>2024-05-01T19:42:44Z</time>
      </trkpt>
      <trkpt lat="47.27527" lon="4.98711">
        <ele>279</ele>
        <time>2024-05-01T19:43:03Z</time>
      </trkpt>
      <trkpt lat="47.275" lon="4.98676">
        <ele>280</ele>
        <time>2024-05-01T19:43:11Z</time>
      </trkpt>
      <trkpt lat="47.27482" lon="4.98631">
        <ele>280</ele>
        <time>2024-05-01T19:43:19Z</time>
      </trkpt>
      <trkpt lat="47.27458" lon="4.98605">
        <ele>280</ele>
        <time>2024-05-01T19:43:26Z</time>
      </trkpt>
      <trkpt lat="47.27495" lon="4.98343">
        <ele>290</ele>
        <time>2024-05-01T19:44:09Z</time>
      </trkpt>
      <trkpt lat="47.27489" lon="4.9831">
        <ele>291</ele>
        <time>2024-05-01T19:44:14Z</time>
      </trkpt>
      <trkpt lat="47.27499" lon="4.98229">
        <ele>296</ele>
        <time>2024-05-01T19:44:27Z</time>
      </trkpt>
      <trkpt lat="47.27462" lon="4.98219">
        <ele>297</ele>
        <time>2024-05-01T19:44:36Z</time>
      </trkpt>
      <trkpt lat="47.27439" lon="4.98193">
        <ele>298</ele>
        <time>2024-05-01T19:44:43Z</time>
      </trkpt>
      <trkpt lat="47.27399" lon="4.98175">
        <ele>299</ele>
        <time>2024-05-01T19:44:52Z</time>
      </trkpt>
      <trkpt lat="47.27363" lon="4.98168">
        <ele>299</ele>
        <time>2024-05-01T19:45:01Z</time>
      </trkpt>
      <trkpt lat="47.27381" lon="4.98108">
        <ele>303</ele>
        <time>2024-05-01T19:45:11Z</time>
      </trkpt>
      <trkpt lat="47.27366" lon="4.98088">
        <ele>304</ele>
        <time>2024-05-01T19:45:16Z</time>
      </trkpt>
      <trkpt lat="47.27309" lon="4.98055">
        <ele>305</ele>
        <time>2024-05-01T19:45:30Z</time>
      </trkpt>
      <trkpt lat="47.27265" lon="4.98037">
        <ele>304</ele>
        <time>2024-05-01T19:45:41Z</time>
      </trkpt>
      <trkpt lat="47.27252" lon="4.9802">
        <ele>305</ele>
        <time>2024-05-01T19:45:45Z</time>
      </trkpt>
      <trkpt lat="47.27221" lon="4.98007">
        <ele>305</ele>
        <time>2024-05-01T19:45:53Z</time>
      </trkpt>
      <trkpt lat="47.2721" lon="4.98013">
        <ele>305</ele>
        <time>2024-05-01T19:45:55Z</time>
      </trkpt>
      <trkpt lat="47.27157" lon="4.97996">
        <ele>304</ele>
        <time>2024-05-01T19:46:08Z</time>
      </trkpt>
      <trkpt lat="47.27126" lon="4.9798">
        <ele>305</ele>
        <time>2024-05-01T19:46:16Z</time>
      </trkpt>
      <trkpt lat="47.27061" lon="4.97986">
        <ele>303</ele>
        <time>2024-05-01T19:46:31Z</time>
      </trkpt>
      <trkpt lat="47.27065" lon="4.97946">
        <ele>306</ele>
        <time>2024-05-01T19:46:37Z</time>
      </trkpt>
      <trkpt lat="47.27066" lon="4.97902">
        <ele>310</ele>
        <time>2024-05-01T19:46:44Z</time>
      </trkpt>
      <trkpt lat="47.27074" lon="4.97838">
        <ele>316</ele>
        <time>2024-05-01T19:46:55Z</time>
      </trkpt>
      <trkpt lat="47.27054" lon="4.9773">
        <ele>326</ele>
        <time>2024-05-01T19:47:12Z</time>
      </trkpt>
      <trkpt lat="47.27053" lon="4.97694">
        <ele>331</ele>
        <time>2024-05-01T19:47:18Z</time>
      </trkpt>
      <trkpt lat="47.27013" lon="4.97713">
        <ele>324</ele>
        <time>2024-05-01T19:47:28Z</time>
      </trkpt>
      <trkpt lat="47.26972" lon="4.97718">
        <ele>320</ele>
        <time>2024-05-01T19:47:37Z</time>
      </trkpt>
      <trkpt lat="47.26941" lon="4.97746">
        <ele>315</ele>
        <time>2024-05-01T19:47:46Z</time>
      </trkpt>
      <trkpt lat="47.26908" lon="4.97758">
        <ele>312</ele>
        <time>2024-05-01T19:47:54Z</time>
      </trkpt>
      <trkpt lat="47.26898" lon="4.97791">
        <ele>309</ele>
        <time>2024-05-01T19:48:00Z</time>
      </trkpt>
      <trkpt lat="47.26889" lon="4.97795">
        <ele>309</ele>
        <time>2024-05-01T19:48:02Z</time>
      </trkpt>
      <trkpt lat="47.2686" lon="4.97735">
        <ele>311</ele>
        <time>2024-05-01T19:48:13Z</time>
      </trkpt>
      <trkpt lat="47.26845" lon="4.97712">
        <ele>311</ele>
        <time>2024-05-01T19:48:18Z</time>
      </trkpt>
      <trkpt lat="47.26861" lon="4.97668">
        <ele>314</ele>
        <time>2024-05-01T19:48:26Z</time>
      </trkpt>
      <trkpt lat="47.26838" lon="4.9761">
        <ele>317</ele>
        <time>2024-05-01T19:48:37Z</time>
      </trkpt>
      <trkpt lat="47.26813" lon="4.97576">
        <ele>319</ele>
        <time>2024-05-01T19:48:45Z</time>
      </trkpt>
      <trkpt lat="47.2679" lon="4.97551">
        <ele>320</ele>
        <time>2024-05-01T19:48:52Z</time>
      </trkpt>
      <trkpt lat="47.26769" lon="4.97587">
        <ele>317</ele>
        <time>2024-05-01T19:48:59Z</time>
      </trkpt>
      <trkpt lat="47.26745" lon="4.97596">
        <ele>316</ele>
        <time>2024-05-01T19:49:05Z</time>
      </trkpt>
      <trkpt lat="47.26718" lon="4.97552">
        <ele>319</ele>
        <time>2024-05-01T19:49:14Z</time>
      </trkpt>
      <trkpt lat="47.2665" lon="4.97546">
        <ele>319</ele>
        <time>2024-05-01T19:49:30Z</time>
      </trkpt>
      <trkpt lat="47.26599" lon="4.97521">
        <ele>321</ele>
        <time>2024-05-01T19:49:43Z</time>
      </trkpt>
      <trkpt lat="47.26557" lon="4.97496">
        <ele>322</ele>
        <time>2024-05-01T19:49:53Z</time>
      </trkpt>
      <trkpt lat="47.26464" lon="4.97421">
        <ele>327</ele>
        <time>2024-05-01T19:50:18Z</time>
      </trkpt>
      <trkpt lat="47.26408" lon="4.97382">
        <ele>329</ele>
        <time>2024-05-01T19:50:33Z</time>
      </trkpt>
      <trkpt lat="47.26388" lon="4.97344">
        <ele>332</ele>
        <time>2024-05-01T19:50:40Z</time>
      </trkpt>
      <trkpt lat="47.26325" lon="4.97289">
        <ele>333</ele>
        <time>2024-05-01T19:50:57Z</time>
      </trkpt>
      <trkpt lat="47.26254" lon="4.9729">
        <ele>325</ele>
        <time>2024-05-01T19:51:14Z</time>
      </trkpt>
      <trkpt lat="47.26207" lon="4.97309">
        <ele>321</ele>
        <time>2024-05-01T19:51:25Z</time>
      </trkpt>
      <trkpt lat="47.26204" lon="4.97243">
        <ele>325</ele>
        <time>2024-05-01T19:51:36Z</time>
      </trkpt>
      <trkpt lat="47.26177" lon="4.97175">
        <ele>330</ele>
        <time>2024-05-01T19:51:48Z</time>
      </trkpt>
      <trkpt lat="47.26158" lon="4.97177">
        <ele>329</ele>
        <time>2024-05-01T19:51:53Z</time>
      </trkpt>
      <trkpt lat="47.26139" lon="4.97193">
        <ele>328</ele>
        <time>2024-05-01T19:51:58Z</time>
      </trkpt>
      <trkpt lat="47.26097" lon="4.97201">
        <ele>329</ele>
        <time>2024-05-01T19:52:08Z</time>
      </trkpt>
      <trkpt lat="47.26081" lon="4.9717">
        <ele>334</ele>
        <time>2024-05-01T19:52:14Z</time>
      </trkpt>
      <trkpt lat="47.26076" lon="4.97136">
        <ele>339</ele>
        <time>2024-05-01T19:52:19Z</time>
      </trkpt>
      <trkpt lat="47.26062" lon="4.97093">
        <ele>345</ele>
        <time>2024-05-01T19:52:27Z</time>
      </trkpt>
      <trkpt lat="47.26041" lon="4.97069">
        <ele>350</ele>
        <time>2024-05-01T19:52:33Z</time>
      </trkpt>
      <trkpt lat="47.26028" lon="4.97066">
        <ele>351</ele>
        <time>2024-05-01T19:52:36Z</time>
      </trkpt>
      <trkpt lat="47.2602" lon="4.97072">
        <ele>351</ele>
        <time>2024-05-01T19:52:38Z</time>
      </trkpt>
      <trkpt lat="47.2601" lon="4.97095">
        <ele>349</ele>
        <time>2024-05-01T19:52:43Z</time>
      </trkpt>
      <trkpt lat="47.25992" lon="4.97111">
        <ele>348</ele>
        <time>2024-05-01T19:52:48Z</time>
      </trkpt>
      <trkpt lat="47.25935" lon="4.97139">
        <ele>348</ele>
        <time>2024-05-01T19:53:02Z</time>
      </trkpt>
      <trkpt lat="47.25922" lon="4.97143">
        <ele>348</ele>
        <time>2024-05-01T19:53:05Z</time>
      </trkpt>
      <trkpt lat="47.25719" lon="4.97113">
        <ele>346</ele>
        <time>2024-05-01T19:53:52Z</time>
      </trkpt>
      <trkpt lat="47.25709" lon="4.97126">
        <ele>344</ele>
        <time>2024-05-01T19:53:55Z</time>
      </trkpt>
      <trkpt lat="47.25689" lon="4.97231">
        <ele>330</ele>
        <time>2024-05-01T19:54:13Z</time>
      </trkpt>
      <trkpt lat="47.25637" lon="4.97193">
        <ele>332</ele>
        <time>2024-05-01T19:54:26Z</time>
      </trkpt>
      <trkpt lat="47.25609" lon="4.97148">
        <ele>334</ele>
        <time>2024-05-01T19:54:36Z</time>
      </trkpt>
      <trkpt lat="47.25552" lon="4.97123">
        <ele>331</ele>
        <time>2024-05-01T19:54:50Z</time>
      </trkpt>
      <trkpt lat="47.25505" lon="4.97081">
        <ele>331</ele>
        <time>2024-05-01T19:55:03Z</time>
      </trkpt>
      <trkpt lat="47.25473" lon="4.96966">
        <ele>338</ele>
        <time>2024-05-01T19:55:22Z</time>
      </trkpt>
      <trkpt lat="47.25432" lon="4.96889">
        <ele>338</ele>
        <time>2024-05-01T19:55:38Z</time>
      </trkpt>
      <trkpt lat="47.25395" lon="4.96799">
        <ele>339</ele>
        <time>2024-05-01T19:55:55Z</time>
      </trkpt>
      <trkpt lat="47.25356" lon="4.96659">
        <ele>341</ele>
        <time>2024-05-01T19:56:19Z</time>
      </trkpt>
      <trkpt lat="47.2535" lon="4.96605">
        <ele>343</ele>
        <time>2024-05-01T19:56:27Z</time>
      </trkpt>
      <trkpt lat="47.25348" lon="4.96516">
        <ele>346</ele>
        <time>2024-05-01T19:56:41Z</time>
      </trkpt>
      <trkpt lat="47.25337" lon="4.96492">
        <ele>345</ele>
        <time>2024-05-01T19:56:46Z</time>
      </trkpt>
      <trkpt lat="47.25299" lon="4.96495">
        <ele>349</ele>
        <time>2024-05-01T19:56:55Z</time>
      </trkpt>
      <trkpt lat="47.25277" lon="4.96524">
        <ele>350</ele>
        <time>2024-05-01T19:57:02Z</time>
      </trkpt>
      <trkpt lat="47.25255" lon="4.96578">
        <ele>346</ele>
        <time>2024-05-01T19:57:12Z</time>
      </trkpt>
      <trkpt lat="47.25225" lon="4.96681">
        <ele>340</ele>
        <time>2024-05-01T19:57:30Z</time>
      </trkpt>
      <trkpt lat="47.25196" lon="4.96718">
        <ele>342</ele>
        <time>2024-05-01T19:57:38Z</time>
      </trkpt>
      <trkpt lat="47.25144" lon="4.9674">
        <ele>345</ele>
        <time>2024-05-01T19:57:51Z</time>
      </trkpt>
      <trkpt lat="47.25085" lon="4.96744">
        <ele>350</ele>
        <time>2024-05-01T19:58:05Z</time>
      </trkpt>
      <trkpt lat="47.25021" lon="4.96753">
        <ele>346</ele>
        <time>2024-05-01T19:58:20Z</time>
      </trkpt>
      <trkpt lat="47.25" lon="4.96798">
        <ele>338</ele>
        <time>2024-05-01T19:58:29Z</time>
      </trkpt>
      <trkpt lat="47.24998" lon="4.96821">
        <ele>334</ele>
        <time>2024-05-01T19:58:32Z</time>
      </trkpt>
      <trkpt lat="47.2497" lon="4.96767">
        <ele>338</ele>
        <time>2024-05-01T19:58:43Z</time>
      </trkpt>
      <trkpt lat="47.24953" lon="4.96727">
        <ele>342</ele>
        <time>2024-05-01T19:58:51Z</time>
      </trkpt>
      <trkpt lat="47.24944" lon="4.9668">
        <ele>349</ele>
        <time>2024-05-01T19:58:58Z</time>
      </trkpt>
      <trkpt lat="47.2494" lon="4.96639">
        <ele>354</ele>
        <time>2024-05-01T19:59:05Z</time>
      </trkpt>
      <trkpt lat="47.24909" lon="4.96607">
        <ele>355</ele>
        <time>2024-05-01T19:59:14Z</time>
      </trkpt>
      <trkpt lat="47.24866" lon="4.96461">
        <ele>367</ele>
        <time>2024-05-01T19:59:39Z</time>
      </trkpt>
      <trkpt lat="47.24874" lon="4.96402">
        <ele>374</ele>
        <time>2024-05-01T19:59:48Z</time>
      </trkpt>
      <trkpt lat="47.24876" lon="4.96365">
        <ele>378</ele>
        <time>2024-05-01T19:59:54Z</time>
      </trkpt>
      <trkpt lat="47.24812" lon="4.96354">
        <ele>371</ele>
        <time>2024-05-01T20:00:09Z</time>
      </trkpt>
      <trkpt lat="47.24782" lon="4.9633">
        <ele>366</ele>
        <time>2024-05-01T20:00:17Z</time>
      </trkpt>
      <trkpt lat="47.24758" lon="4.96291">
        <ele>365</ele>
        <time>2024-05-01T20:00:26Z</time>
      </trkpt>
      <trkpt lat="47.24749" lon="4.9629">
        <ele>363</ele>
        <time>2024-05-01T20:00:28Z</time>
      </trkpt>
      <trkpt lat="47.2473" lon="4.96243">
        <ele>362</ele>
        <time>2024-05-01T20:00:36Z</time>
      </trkpt>
      <trkpt lat="47.24709" lon="4.96209">
        <ele>357</ele>
        <time>2024-05-01T20:00:44Z</time>
      </trkpt>
      <trkpt lat="47.24686" lon="4.96191">
        <ele>350</ele>
        <time>2024-05-01T20:00:50Z</time>
      </trkpt>
      <trkpt lat="47.24666" lon="4.96164">
        <ele>345</ele>
        <time>2024-05-01T20:00:56Z</time>
      </trkpt>
      <trkpt lat="47.24656" lon="4.96112">
        <ele>351</ele>
        <time>2024-05-01T20:01:05Z</time>
      </trkpt>
      <trkpt lat="47.24633" lon="4.961">
        <ele>355</ele>
        <time>2024-05-01T20:01:10Z</time>
      </trkpt>
      <trkpt lat="47.24599" lon="4.96258">
        <ele>353</ele>
        <time>2024-05-01T20:01:37Z</time>
      </trkpt>
      <trkpt lat="47.24579" lon="4.96457">
        <ele>339</ele>
        <time>2024-05-01T20:02:09Z</time>
      </trkpt>
      <trkpt lat="47.2456" lon="4.96524">
        <ele>336</ele>
        <time>2024-05-01T20:02:20Z</time>
      </trkpt>
      <trkpt lat="47.24566" lon="4.96639">
        <ele>327</ele>
        <time>2024-05-01T20:02:38Z</time>
      </trkpt>
      <trkpt lat="47.24573" lon="4.96695">
        <ele>323</ele>
        <time>2024-05-01T20:02:47Z</time>
      </trkpt>
      <trkpt lat="47.24587" lon="4.96728">
        <ele>320</ele>
        <time>2024-05-01T20:02:54Z</time>
      </trkpt>
      <trkpt lat="47.24622" lon="4.9676">
        <ele>317</ele>
        <time>2024-05-01T20:03:03Z</time>
      </trkpt>
      <trkpt lat="47.24616" lon="4.96884">
        <ele>311</ele>
        <time>2024-05-01T20:03:23Z</time>
      </trkpt>
      <trkpt lat="47.24595" lon="4.96958">
        <ele>309</ele>
        <time>2024-05-01T20:03:36Z</time>
      </trkpt>
      <trkpt lat="47.24573" lon="4.97004">
        <ele>307</ele>
        <time>2024-05-01T20:03:45Z</time>
      </trkpt>
      <trkpt lat="47.245" lon="4.96969">
        <ele>304</ele>
        <time>2024-05-01T20:04:02Z</time>
      </trkpt>
      <trkpt lat="47.24455" lon="4.96971">
        <ele>302</ele>
        <time>2024-05-01T20:04:13Z</time>
      </trkpt>
      <trkpt lat="47.24454" lon="4.96947">
        <ele>303</ele>
        <time>2024-05-01T20:04:17Z</time>
      </trkpt>
      <trkpt lat="47.24434" lon="4.96939">
        <ele>303</ele>
        <time>2024-05-01T20:04:22Z</time>
      </trkpt>
      <trkpt lat="47.24391" lon="4.96951">
        <ele>302</ele>
        <time>2024-05-01T20:04:32Z</time>
      </trkpt>
      <trkpt lat="47.24359" lon="4.96984">
        <ele>301</ele>
        <time>2024-05-01T20:04:41Z</time>
      </trkpt>
      <trkpt lat="47.24328" lon="4.97005">
        <ele>301</ele>
        <time>2024-05-01T20:04:49Z</time>
      </trkpt>
      <trkpt lat="47.24288" lon="4.97054">
        <ele>298</ele>
        <time>2024-05-01T20:05:01Z</time>
      </trkpt>
      <trkpt lat="47.24226" lon="4.97059">
        <ele>297</ele>
        <time>2024-05-01T20:05:16Z</time>
      </trkpt>
      <trkpt lat="47.24172" lon="4.97058">
        <ele>294</ele>
        <time>2024-05-01T20:05:28Z</time>
      </trkpt>
      <trkpt lat="47.24139" lon="4.97076">
        <ele>293</ele>
        <time>2024-05-01T20:05:36Z</time>
      </trkpt>
      <trkpt lat="47.24095" lon="4.9707">
        <ele>294</ele>
        <time>2024-05-01T20:05:47Z</time>
      </trkpt>
      <trkpt lat="47.24006" lon="4.97129">
        <ele>295</ele>
        <time>2024-05-01T20:06:10Z</time>
      </trkpt>
      <trkpt lat="47.23971" lon="4.97116">
        <ele>296</ele>
        <time>2024-05-01T20:06:18Z</time>
      </trkpt>
      <trkpt lat="47.23919" lon="4.97076">
        <ele>297</ele>
        <time>2024-05-01T20:06:32Z</time>
      </trkpt>
      <trkpt lat="47.23916" lon="4.97058">
        <ele>297</ele>
        <time>2024-05-01T20:06:35Z</time>
      </trkpt>
      <trkpt lat="47.23909" lon="4.96986">
        <ele>298</ele>
        <time>2024-05-01T20:06:46Z</time>
      </trkpt>
      <trkpt lat="47.23908" lon="4.96934">
        <ele>300</ele>
        <time>2024-05-01T20:06:54Z</time>
      </trkpt>
      <trkpt lat="47.23918" lon="4.96869">
        <ele>302</ele>
        <time>2024-05-01T20:07:05Z</time>
      </trkpt>
      <trkpt lat="47.23926" lon="4.96781">
        <ele>305</ele>
        <time>2024-05-01T20:07:19Z</time>
      </trkpt>
      <trkpt lat="47.23881" lon="4.96776">
        <ele>305</ele>
        <time>2024-05-01T20:07:30Z</time>
      </trkpt>
      <trkpt lat="47.23873" lon="4.96787">
        <ele>304</ele>
        <time>2024-05-01T20:07:32Z</time>
      </trkpt>
      <trkpt lat="47.23859" lon="4.96779">
        <ele>304</ele>
        <time>2024-05-01T20:07:36Z</time>
      </trkpt>
      <trkpt lat="47.2386" lon="4.96721">
        <ele>307</ele>
        <time>2024-05-01T20:07:45Z</time>
      </trkpt>
      <trkpt lat="47.23847" lon="4.96646">
        <ele>312</ele>
        <time>2024-05-01T20:07:57Z</time>
      </trkpt>
      <trkpt lat="47.23805" lon="4.96655">
        <ele>312</ele>
        <time>2024-05-01T20:08:07Z</time>
      </trkpt>
      <trkpt lat="47.23792" lon="4.96679">
        <ele>311</ele>
        <time>2024-05-01T20:08:12Z</time>
      </trkpt>
      <trkpt lat="47.23755" lon="4.96668">
        <ele>313</ele>
        <time>2024-05-01T20:08:21Z</time>
      </trkpt>
      <trkpt lat="47.23723" lon="4.96645">
        <ele>315</ele>
        <time>2024-05-01T20:08:29Z</time>
      </trkpt>
      <trkpt lat="47.23664" lon="4.96628">
        <ele>317</ele>
        <time>2024-05-01T20:08:43Z</time>
      </trkpt>
      <trkpt lat="47.23651" lon="4.96619">
        <ele>317</ele>
        <time>2024-05-01T20:08:46Z</time>
      </trkpt>
      <trkpt lat="47.23627" lon="4.96615">
        <ele>317</ele>
        <time>2024-05-01T20:08:52Z</time>
      </trkpt>
      <trkpt lat="47.23541" lon="4.96565">
        <ele>319</ele>
        <time>2024-05-01T20:09:14Z</time>
      </trkpt>
      <trkpt lat="47.2348" lon="4.9655">
        <ele>319</ele>
        <time>2024-05-01T20:09:28Z</time>
      </trkpt>
      <trkpt lat="47.23428" lon="4.96552">
        <ele>316</ele>
        <time>2024-05-01T20:09:40Z</time>
      </trkpt>
      <trkpt lat="47.23382" lon="4.96535">
        <ele>316</ele>
        <time>2024-05-01T20:09:51Z</time>
      </trkpt>
      <trkpt lat="47.23347" lon="4.96527">
        <ele>315</ele>
        <time>2024-05-01T20:10:00Z</time>
      </trkpt>
      <trkpt lat="47.23274" lon="4.96493">
        <ele>314</ele>
        <time>2024-05-01T20:10:17Z</time>
      </trkpt>
      <trkpt lat="47.23256" lon="4.96482">
        <ele>314</ele>
        <time>2024-05-01T20:10:22Z</time>
      </trkpt>
      <trkpt lat="47.23178" lon="4.96454">
        <ele>310</ele>
        <time>2024-05-01T20:10:41Z</time>
      </trkpt>
      <trkpt lat="47.23158" lon="4.9644">
        <ele>310</ele>
        <time>2024-05-01T20:10:46Z</time>
      </trkpt>
      <trkpt lat="47.2313" lon="4.96436">
        <ele>309</ele>
        <time>2024-05-01T20:10:53Z</time>
      </trkpt>
      <trkpt lat="47.23106" lon="4.96501">
        <ele>304</ele>
        <time>2024-05-01T20:11:04Z</time>
      </trkpt>
      <trkpt lat="47.23073" lon="4.96511">
        <ele>302</ele>
        <time>2024-05-01T20:11:12Z</time>
      </trkpt>
      <trkpt lat="47.23056" lon="4.96527">
        <ele>302</ele>
        <time>2024-05-01T20:11:17Z</time>
      </trkpt>
      <trkpt lat="47.23016" lon="4.96508">
        <ele>301</ele>
        <time>2024-05-01T20:11:27Z</time>
      </trkpt>
      <trkpt lat="47.22998" lon="4.96494">
        <ele>301</ele>
        <time>2024-05-01T20:11:31Z</time>
      </trkpt>
      <trkpt lat="47.23009" lon="4.96418">
        <ele>303</ele>
        <time>2024-05-01T20:11:44Z</time>
      </trkpt>
      <trkpt lat="47.22979" lon="4.964">
        <ele>302</ele>
        <time>2024-05-01T20:11:51Z</time>
      </trkpt>
      <trkpt lat="47.22963" lon="4.96394">
        <ele>302</ele>
        <time>2024-05-01T20:11:55Z</time>
      </trkpt>
      <trkpt lat="47.22947" lon="4.9638">
        <ele>302</ele>
        <time>2024-05-01T20:11:59Z</time>
      </trkpt>
      <trkpt lat="47.22891" lon="4.96345">
        <ele>300</ele>
        <time>2024-05-01T20:12:14Z</time>
      </trkpt>
      <trkpt lat="47.22862" lon="4.96402">
        <ele>297</ele>
        <time>2024-05-01T20:12:25Z</time>
      </trkpt>
      <trkpt lat="47.22813" lon="4.96354">
        <ele>296</ele>
        <time>2024-05-01T20:12:39Z</time>
      </trkpt>
      <trkpt lat="47.22729" lon="4.96282">
        <ele>294</ele>
        <time>2024-05-01T20:13:01Z</time>
      </trkpt>
      <trkpt lat="47.22715" lon="4.96303">
        <ele>293</ele>
        <time>2024-05-01T20:13:06Z</time>
      </trkpt>
      <trkpt lat="47.22664" lon="4.96263">
        <ele>290</ele>
        <time>2024-05-01T20:13:20Z</time>
      </trkpt>
      <trkpt lat="47.22626" lon="4.9625">
        <ele>289</ele>
        <time>2024-05-01T20:13:29Z</time>
      </trkpt>
      <trkpt lat="47.22624" lon="4.96224">
        <ele>289</ele>
        <time>2024-05-01T20:13:33Z</time>
      </trkpt>
      <trkpt lat="47.22653" lon="4.96161">
        <ele>291</ele>
        <time>2024-05-01T20:13:45Z</time>
      </trkpt>
      <trkpt lat="47.22708" lon="4.96084">
        <ele>296</ele>
        <time>2024-05-01T20:14:03Z</time>
      </trkpt>
      <trkpt lat="47.22749" lon="4.96021">
        <ele>303</ele>
        <time>2024-05-01T20:14:16Z</time>
      </trkpt>
      <trkpt lat="47.22802" lon="4.95927">
        <ele>316</ele>
        <time>2024-05-01T20:14:36Z</time>
      </trkpt>
      <trkpt lat="47.22752" lon="4.95811">
        <ele>317</ele>
        <time>2024-05-01T20:14:58Z</time>
      </trkpt>
      <trkpt lat="47.22737" lon="4.9581">
        <ele>315</ele>
        <time>2024-05-01T20:15:01Z</time>
      </trkpt>
      <trkpt lat="47.22726" lon="4.95789">
        <ele>315</ele>
        <time>2024-05-01T20:15:05Z</time>
      </trkpt>
      <trkpt lat="47.22733" lon="4.95772">
        <ele>318</ele>
        <time>2024-05-01T20:15:08Z</time>
      </trkpt>
      <trkpt lat="47.22753" lon="4.95745">
        <ele>323</ele>
        <time>2024-05-01T20:15:15Z</time>
      </trkpt>
      <trkpt lat="47.2268" lon="4.95567">
        <ele>324</ele>
        <time>2024-05-01T20:15:48Z</time>
      </trkpt>
      <trkpt lat="47.22674" lon="4.9553">
        <ele>324</ele>
        <time>2024-05-01T20:15:54Z</time>
      </trkpt>
      <trkpt lat="47.22748" lon="4.95479">
        <ele>344</ele>
        <time>2024-05-01T20:16:13Z</time>
      </trkpt>
      <trkpt lat="47.22693" lon="4.95255">
        <ele>341</ele>
        <time>2024-05-01T20:16:51Z</time>
      </trkpt>
      <trkpt lat="47.22665" lon="4.95094">
        <ele>343</ele>
        <time>2024-05-01T20:17:17Z</time>
      </trkpt>
      <trkpt lat="47.22607" lon="4.95119">
        <ele>335</ele>
        <time>2024-05-01T20:17:31Z</time>
      </trkpt>
      <trkpt lat="47.22565" lon="4.9512">
        <ele>338</ele>
        <time>2024-05-01T20:17:41Z</time>
      </trkpt>
      <trkpt lat="47.2257" lon="4.95182">
        <ele>334</ele>
        <time>2024-05-01T20:17:51Z</time>
      </trkpt>
      <trkpt lat="47.22548" lon="4.95565">
        <ele>309</ele>
        <time>2024-05-01T20:18:52Z</time>
      </trkpt>
      <trkpt lat="47.22532" lon="4.95597">
        <ele>306</ele>
        <time>2024-05-01T20:18:58Z</time>
      </trkpt>
      <trkpt lat="47.22487" lon="4.95632">
        <ele>303</ele>
        <time>2024-05-01T20:19:10Z</time>
      </trkpt>
      <trkpt lat="47.22478" lon="4.95652">
        <ele>302</ele>
        <time>2024-05-01T20:19:14Z</time>
      </trkpt>
      <trkpt lat="47.22489" lon="4.95725">
        <ele>299</ele>
        <time>2024-05-01T20:19:26Z</time>
      </trkpt>
      <trkpt lat="47.22495" lon="4.95819">
        <ele>297</ele>
        <time>2024-05-01T20:19:41Z</time>
      </trkpt>
      <trkpt lat="47.2254" lon="4.96019">
        <ele>290</ele>
        <time>2024-05-01T20:20:14Z</time>
      </trkpt>
      <trkpt lat="47.22567" lon="4.96115">
        <ele>289</ele>
        <time>2024-05-01T20:20:31Z</time>
      </trkpt>
      <trkpt lat="47.22539" lon="4.96098">
        <ele>289</ele>
        <time>2024-05-01T20:20:38Z</time>
      </trkpt>
      <trkpt lat="47.22506" lon="4.9605">
        <ele>289</ele>
        <time>2024-05-01T20:20:48Z</time>
      </trkpt>
      <trkpt lat="47.22472" lon="4.96008">
        <ele>292</ele>
        <time>2024-05-01T20:20:59Z</time>
      </trkpt>
      <trkpt lat="47.22441" lon="4.96004">
        <ele>295</ele>
        <time>2024-05-01T20:21:06Z</time>
      </trkpt>
      <trkpt lat="47.22397" lon="4.96015">
        <ele>302</ele>
        <time>2024-05-01T20:21:17Z</time>
      </trkpt>
      <trkpt lat="47.22372" lon="4.96045">
        <ele>307</ele>
        <time>2024-05-01T20:21:24Z</time>
      </trkpt>
      <trkpt lat="47.22322" lon="4.96129">
        <ele>310</ele>
        <time>2024-05-01T20:21:42Z</time>
      </trkpt>
      <trkpt lat="47.22259" lon="4.96257">
        <ele>311</ele>
        <time>2024-05-01T20:22:07Z</time>
      </trkpt>
      <trkpt lat="47.22232" lon="4.96302">
        <ele>310</ele>
        <time>2024-05-01T20:22:16Z</time>
      </trkpt>
      <trkpt lat="47.22197" lon="4.96339">
        <ele>310</ele>
        <time>2024-05-01T20:22:26Z</time>
      </trkpt>
      <trkpt lat="47.22121" lon="4.96347">
        <ele>314</ele>
        <time>2024-05-01T20:22:44Z</time>
      </trkpt>
      <trkpt lat="47.22031" lon="4.96328">
        <ele>318</ele>
        <time>2024-05-01T20:23:05Z</time>
      </trkpt>
      <trkpt lat="47.21846" lon="4.96315">
        <ele>319</ele>
        <time>2024-05-01T20:23:49Z</time>
      </trkpt>
      <trkpt lat="47.21713" lon="4.96268">
        <ele>331</ele>
        <time>2024-05-01T20:24:21Z</time>
      </trkpt>
      <trkpt lat="47.21492" lon="4.96184">
        <ele>344</ele>
        <time>2024-05-01T20:25:14Z</time>
      </trkpt>
      <trkpt lat="47.21334" lon="4.96071">
        <ele>344</ele>
        <time>2024-05-01T20:25:55Z</time>
      </trkpt>
      <trkpt lat="47.21132" lon="4.95789">
        <ele>354</ele>
        <time>2024-05-01T20:27:00Z</time>
      </trkpt>
      <trkpt lat="47.21038" lon="4.95644">
        <ele>357</ele>
        <time>2024-05-01T20:27:32Z</time>
      </trkpt>
      <trkpt lat="47.20987" lon="4.95444">
        <ele>369</ele>
        <time>2024-05-01T20:28:06Z</time>
      </trkpt>
      <trkpt lat="47.20973" lon="4.9532">
        <ele>377</ele>
        <time>2024-05-01T20:28:26Z</time>
      </trkpt>
      <trkpt lat="47.2097" lon="4.95214">
        <ele>382</ele>
        <time>2024-05-01T20:28:42Z</time>
      </trkpt>
      <trkpt lat="47.20938" lon="4.9518">
        <ele>380</ele>
        <time>2024-05-01T20:28:52Z</time>
      </trkpt>
      <trkpt lat="47.20896" lon="4.95178">
        <ele>385</ele>
        <time>2024-05-01T20:29:01Z</time>
      </trkpt>
      <trkpt lat="47.20879" lon="4.95217">
        <ele>386</ele>
        <time>2024-05-01T20:29:09Z</time>
      </trkpt>
      <trkpt lat="47.20804" lon="4.95502">
        <ele>383</ele>
        <time>2024-05-01T20:29:57Z</time>
      </trkpt>
      <trkpt lat="47.20772" lon="4.95586">
        <ele>382</ele>
        <time>2024-05-01T20:30:13Z</time>
      </trkpt>
      <trkpt lat="47.20743" lon="4.95609">
        <ele>386</ele>
        <time>2024-05-01T20:30:20Z</time>
      </trkpt>
      <trkpt lat="47.20709" lon="4.95616">
        <ele>386</ele>
        <time>2024-05-01T20:30:28Z</time>
      </trkpt>
      <trkpt lat="47.20684" lon="4.95611">
        <ele>388</ele>
        <time>2024-05-01T20:30:34Z</time>
      </trkpt>
      <trkpt lat="47.2066" lon="4.95614">
        <ele>388</ele>
        <time>2024-05-01T20:30:40Z</time>
      </trkpt>
      <trkpt lat="47.20642" lon="4.95606">
        <ele>388</ele>
        <time>2024-05-01T20:30:44Z</time>
      </trkpt>
      <trkpt lat="47.20632" lon="4.95607">
        <ele>387</ele>
        <time>2024-05-01T20:30:47Z</time>
      </trkpt>
      <trkpt lat="47.20593" lon="4.95585">
        <ele>388</ele>
        <time>2024-05-01T20:30:56Z</time>
      </trkpt>
      <trkpt lat="47.20531" lon="4.95527">
        <ele>392</ele>
        <time>2024-05-01T20:31:13Z</time>
      </trkpt>
      <trkpt lat="47.20487" lon="4.95482">
        <ele>395</ele>
        <time>2024-05-01T20:31:26Z</time>
      </trkpt>
      <trkpt lat="47.20449" lon="4.95423">
        <ele>398</ele>
        <time>2024-05-01T20:31:39Z</time>
      </trkpt>
      <trkpt lat="47.20426" lon="4.95421">
        <ele>396</ele>
        <time>2024-05-01T20:31:44Z</time>
      </trkpt>
      <trkpt lat="47.20375" lon="4.95356">
        <ele>399</ele>
        <time>2024-05-01T20:32:00Z</time>
      </trkpt>
      <trkpt lat="47.20359" lon="4.95356">
        <ele>397</ele>
        <time>2024-05-01T20:32:04Z</time>
      </trkpt>
      <trkpt lat="47.20281" lon="4.95181">
        <ele>401</ele>
        <time>2024-05-01T20:32:37Z</time>
      </trkpt>
      <trkpt lat="47.20257" lon="4.95174">
        <ele>401</ele>
        <time>2024-05-01T20:32:43Z</time>
      </trkpt>
      <trkpt lat="47.20223" lon="4.9517">
        <ele>396</ele>
        <time>2024-05-01T20:32:51Z</time>
      </trkpt>
      <trkpt lat="47.20191" lon="4.95147">
        <ele>393</ele>
        <time>2024-05-01T20:32:59Z</time>
      </trkpt>
      <trkpt lat="47.20154" lon="4.95102">
        <ele>389</ele>
        <time>2024-05-01T20:33:10Z</time>
      </trkpt>
      <trkpt lat="47.20144" lon="4.95056">
        <ele>391</ele>
        <time>2024-05-01T20:33:18Z</time>
      </trkpt>
      <trkpt lat="47.20146" lon="4.9497">
        <ele>399</ele>
        <time>2024-05-01T20:33:31Z</time>
      </trkpt>
      <trkpt lat="47.2013" lon="4.94936">
        <ele>398</ele>
        <time>2024-05-01T20:33:38Z</time>
      </trkpt>
      <trkpt lat="47.20137" lon="4.94906">
        <ele>402</ele>
        <time>2024-05-01T20:33:43Z</time>
      </trkpt>
      <trkpt lat="47.20151" lon="4.94868">
        <ele>408</ele>
        <time>2024-05-01T20:33:50Z</time>
      </trkpt>
      <trkpt lat="47.20152" lon="4.94852">
        <ele>409</ele>
        <time>2024-05-01T20:33:52Z</time>
      </trkpt>
      <trkpt lat="47.20168" lon="4.9484">
        <ele>412</ele>
        <time>2024-05-01T20:33:57Z</time>
      </trkpt>
      <trkpt lat="47.20172" lon="4.94751">
        <ele>413</ele>
        <time>2024-05-01T20:34:11Z</time>
      </trkpt>
      <trkpt lat="47.20169" lon="4.94643">
        <ele>413</ele>
        <time>2024-05-01T20:34:28Z</time>
      </trkpt>
      <trkpt lat="47.20164" lon="4.94586">
        <ele>413</ele>
        <time>2024-05-01T20:34:37Z</time>
      </trkpt>
      <trkpt lat="47.20189" lon="4.94455">
        <ele>417</ele>
        <time>2024-05-01T20:34:59Z</time>
      </trkpt>
      <trkpt lat="47.20189" lon="4.944">
        <ele>419</ele>
        <time>2024-05-01T20:35:07Z</time>
      </trkpt>
      <trkpt lat="47.20177" lon="4.94328">
        <ele>423</ele>
        <time>2024-05-01T20:35:19Z</time>
      </trkpt>
      <trkpt lat="47.20162" lon="4.94309">
        <ele>423</ele>
        <time>2024-05-01T20:35:24Z</time>
      </trkpt>
      <trkpt lat="47.20141" lon="4.94337">
        <ele>422</ele>
        <time>2024-05-01T20:35:30Z</time>
      </trkpt>
      <trkpt lat="47.20109" lon="4.94412">
        <ele>421</ele>
        <time>2024-05-01T20:35:44Z</time>
      </trkpt>
      <trkpt lat="47.20079" lon="4.9449">
        <ele>422</ele>
        <time>2024-05-01T20:35:59Z</time>
      </trkpt>
      <trkpt lat="47.20072" lon="4.94528">
        <ele>421</ele>
        <time>2024-05-01T20:36:05Z</time>
      </trkpt>
      <trkpt lat="47.20046" lon="4.94555">
        <ele>421</ele>
        <time>2024-05-01T20:36:12Z</time>
      </trkpt>
      <trkpt lat="47.19998" lon="4.94596">
        <ele>422</ele>
        <time>2024-05-01T20:36:25Z</time>
      </trkpt>
      <trkpt lat="47.19944" lon="4.94616">
        <ele>423</ele>
        <time>2024-05-01T20:36:38Z</time>
      </trkpt>
      <trkpt lat="47.19872" lon="4.94679">
        <ele>422</ele>
        <time>2024-05-01T20:36:58Z</time>
      </trkpt>
      <trkpt lat="47.19854" lon="4.94682">
        <ele>422</ele>
        <time>2024-05-01T20:37:02Z</time>
      </trkpt>
      <trkpt lat="47.19838" lon="4.9468">
        <ele>422</ele>
        <time>2024-05-01T20:37:06Z</time>
      </trkpt>
      <trkpt lat="47.19805" lon="4.94706">
        <ele>422</ele>
        <time>2024-05-01T20:37:15Z</time>
      </trkpt>
      <trkpt lat="47.19778" lon="4.94737">
        <ele>421</ele>
        <time>2024-05-01T20:37:23Z</time>
      </trkpt>
      <trkpt lat="47.197" lon="4.94783">
        <ele>421</ele>
        <time>2024-05-01T20:37:42Z</time>
      </trkpt>
      <trkpt lat="47.1964" lon="4.9483">
        <ele>418</ele>
        <time>2024-05-01T20:37:58Z</time>
      </trkpt>
      <trkpt lat="47.19596" lon="4.94832">
        <ele>417</ele>
        <time>2024-05-01T20:38:08Z</time>
      </trkpt>
      <trkpt lat="47.19574" lon="4.94857">
        <ele>413</ele>
        <time>2024-05-01T20:38:15Z</time>
      </trkpt>
      <trkpt lat="47.1956" lon="4.94881">
        <ele>411</ele>
        <time>2024-05-01T20:38:20Z</time>
      </trkpt>
      <trkpt lat="47.19539" lon="4.9488">
        <ele>410</ele>
        <time>2024-05-01T20:38:25Z</time>
      </trkpt>
      <trkpt lat="47.1952" lon="4.94897">
        <ele>407</ele>
        <time>2024-05-01T20:38:30Z</time>
      </trkpt>
      <trkpt lat="47.19503" lon="4.94935">
        <ele>404</ele>
        <time>2024-05-01T20:38:37Z</time>
      </trkpt>
      <trkpt lat="47.19478" lon="4.94971">
        <ele>400</ele>
        <time>2024-05-01T20:38:45Z</time>
      </trkpt>
      <trkpt lat="47.19438" lon="4.94984">
        <ele>397</ele>
        <time>2024-05-01T20:38:55Z</time>
      </trkpt>
      <trkpt lat="47.1939" lon="4.94989">
        <ele>393</ele>
        <time>2024-05-01T20:39:06Z</time>
      </trkpt>
      <trkpt lat="47.19354" lon="4.95013">
        <ele>389</ele>
        <time>2024-05-01T20:39:15Z</time>
      </trkpt>
      <trkpt lat="47.19281" lon="4.95022">
        <ele>384</ele>
        <time>2024-05-01T20:39:33Z</time>
      </trkpt>
      <trkpt lat="47.19156" lon="4.95018">
        <ele>375</ele>
        <time>2024-05-01T20:40:02Z</time>
      </trkpt>
      <trkpt lat="47.19091" lon="4.9509">
        <ele>362</ele>
        <time>2024-05-01T20:40:21Z</time>
      </trkpt>
      <trkpt lat="47.18921" lon="4.9516">
        <ele>342</ele>
        <time>2024-05-01T20:41:02Z</time>
      </trkpt>
      <trkpt lat="47.189" lon="4.95177">
        <ele>338</ele>
        <time>2024-05-01T20:41:08Z</time>
      </trkpt>
      <trkpt lat="47.18784" lon="4.9519">
        <ele>319</ele>
        <time>2024-05-01T20:41:35Z</time>
      </trkpt>
      <trkpt lat="47.18708" lon="4.95168">
        <ele>304</ele>
        <time>2024-05-01T20:41:53Z</time>
      </trkpt>
      <trkpt lat="47.18678" lon="4.95108">
        <ele>301</ele>
        <time>2024-05-01T20:42:05Z</time>
      </trkpt>
      <trkpt lat="47.18658" lon="4.95042">
        <ele>297</ele>
        <time>2024-05-01T20:42:16Z</time>
      </trkpt>
      <trkpt lat="47.18657" lon="4.95013">
        <ele>297</ele>
        <time>2024-05-01T20:42:21Z</time>
      </trkpt>
      <trkpt lat="47.18616" lon="4.95012">
        <ele>290</ele>
        <time>2024-05-01T20:42:30Z</time>
      </trkpt>
      <trkpt lat="47.18523" lon="4.9503">
        <ele>286</ele>
        <time>2024-05-01T20:42:52Z</time>
      </trkpt>
      <trkpt lat="47.18378" lon="4.95008">
        <ele>293</ele>
        <time>2024-05-01T20:43:26Z</time>
      </trkpt>
      <trkpt lat="47.18348" lon="4.95007">
        <ele>294</ele>
        <time>2024-05-01T20:43:33Z</time>
      </trkpt>
      <trkpt lat="47.18289" lon="4.9497">
        <ele>300</ele>
        <time>2024-05-01T20:43:48Z</time>
      </trkpt>
      <trkpt lat="47.18265" lon="4.94952">
        <ele>303</ele>
        <time>2024-05-01T20:43:54Z</time>
      </trkpt>
      <trkpt lat="47.18245" lon="4.94912">
        <ele>308</ele>
        <time>2024-05-01T20:44:02Z</time>
      </trkpt>
      <trkpt lat="47.1819" lon="4.94896">
        <ele>311</ele>
        <time>2024-05-01T20:44:15Z</time>
      </trkpt>
      <trkpt lat="47.18166" lon="4.94912">
        <ele>310</ele>
        <time>2024-05-01T20:44:22Z</time>
      </trkpt>
      <trkpt lat="47.18144" lon="4.94961">
        <ele>311</ele>
        <time>2024-05-01T20:44:31Z</time>
      </trkpt>
      <trkpt lat="47.18119" lon="4.95045">
        <ele>310</ele>
        <time>2024-05-01T20:44:45Z</time>
      </trkpt>
      <trkpt lat="47.18092" lon="4.95125">
        <ele>308</ele>
        <time>2024-05-01T20:45:00Z</time>
      </trkpt>
      <trkpt lat="47.18069" lon="4.95219">
        <ele>302</ele>
        <time>2024-05-01T20:45:16Z</time>
      </trkpt>
      <trkpt lat="47.18051" lon="4.95264">
        <ele>299</ele>
        <time>2024-05-01T20:45:24Z</time>
      </trkpt>
      <trkpt lat="47.18011" lon="4.95267">
        <ele>304</ele>
        <time>2024-05-01T20:45:33Z</time>
      </trkpt>
      <trkpt lat="47.17938" lon="4.95318">
        <ele>301</ele>
        <time>2024-05-01T20:45:52Z</time>
      </trkpt>
      <trkpt lat="47.17921" lon="4.95334">
        <ele>299</ele>
        <time>2024-05-01T20:45:57Z</time>
      </trkpt>
      <trkpt lat="47.17744" lon="4.95308">
        <ele>286</ele>
        <time>2024-05-01T20:46:38Z</time>
      </trkpt>
      <trkpt lat="47.17707" lon="4.95284">
        <ele>284</ele>
        <time>2024-05-01T20:46:48Z</time>
      </trkpt>
      <trkpt lat="47.17689" lon="4.95264">
        <ele>283</ele>
        <time>2024-05-01T20:46:53Z</time>
      </trkpt>
      <trkpt lat="47.17649" lon="4.95237">
        <ele>281</ele>
        <time>2024-05-01T20:47:03Z</time>
      </trkpt>
      <trkpt lat="47.17616" lon="4.95218">
        <ele>280</ele>
        <time>2024-05-01T20:47:12Z</time>
      </trkpt>
      <trkpt lat="47.17568" lon="4.95209">
        <ele>276</ele>
        <time>2024-05-01T20:47:23Z</time>
      </trkpt>
      <trkpt lat="47.17542" lon="4.95225">
        <ele>272</ele>
        <time>2024-05-01T20:47:29Z</time>
      </trkpt>
      <trkpt lat="47.17498" lon="4.95296">
        <ele>263</ele>
        <time>2024-05-01T20:47:45Z</time>
      </trkpt>
      <trkpt lat="47.17481" lon="4.95356">
        <ele>259</ele>
        <time>2024-05-01T20:47:55Z</time>
      </trkpt>
      <trkpt lat="47.1739" lon="4.9535">
        <ele>259</ele>
        <time>2024-05-01T20:48:16Z</time>
      </trkpt>
      <trkpt lat="47.17359" lon="4.95327">
        <ele>262</ele>
        <time>2024-05-01T20:48:24Z</time>
      </trkpt>
      <trkpt lat="47.17333" lon="4.95318">
        <ele>263</ele>
        <time>2024-05-01T20:48:31Z</time>
      </trkpt>
      <trkpt lat="47.17098" lon="4.95263">
        <ele>262</ele>
        <time>2024-05-01T20:49:26Z</time>
      </trkpt>
      <trkpt lat="47.1711" lon="4.94872">
        <ele>278</ele>
        <time>2024-05-01T20:50:28Z</time>
      </trkpt>
      <trkpt lat="47.17072" lon="4.94769">
        <ele>287</ele>
        <time>2024-05-01T20:50:47Z</time>
      </trkpt>
      <trkpt lat="47.17011" lon="4.94675">
        <ele>300</ele>
        <time>2024-05-01T20:51:08Z</time>
      </trkpt>
      <trkpt lat="47.16941" lon="4.94559">
        <ele>313</ele>
        <time>2024-05-01T20:51:32Z</time>
      </trkpt>
      <trkpt lat="47.16931" lon="4.9455">
        <ele>314</ele>
        <time>2024-05-01T20:51:35Z</time>
      </trkpt>
      <trkpt lat="47.16917" lon="4.94553">
        <ele>312</ele>
        <time>2024-05-01T20:51:38Z</time>
      </trkpt>
      <trkpt lat="47.1684" lon="4.94611">
        <ele>298</ele>
        <time>2024-05-01T20:51:58Z</time>
      </trkpt>
      <trkpt lat="47.16778" lon="4.94568">
        <ele>297</ele>
        <time>2024-05-01T20:52:14Z</time>
      </trkpt>
      <trkpt lat="47.16736" lon="4.94544">
        <ele>295</ele>
        <time>2024-05-01T20:52:25Z</time>
      </trkpt>
      <trkpt lat="47.16713" lon="4.94525">
        <ele>294</ele>
        <time>2024-05-01T20:52:31Z</time>
      </trkpt>
      <trkpt lat="47.16697" lon="4.94494">
        <ele>295</ele>
        <time>2024-05-01T20:52:37Z</time>
      </trkpt>
      <trkpt lat="47.16656" lon="4.94453">
        <ele>295</ele>
        <time>2024-05-01T20:52:49Z</time>
      </trkpt>
      <trkpt lat="47.16644" lon="4.94435">
        <ele>295</ele>
        <time>2024-05-01T20:52:53Z</time>
      </trkpt>
      <trkpt lat="47.16662" lon="4.94416">
        <ele>299</ele>
        <time>2024-05-01T20:52:58Z</time>
      </trkpt>
      <trkpt lat="47.16685" lon="4.94372">
        <ele>308</ele>
        <time>2024-05-01T20:53:07Z</time>
      </trkpt>
      <trkpt lat="47.16668" lon="4.94336">
        <ele>309</ele>
        <time>2024-05-01T20:53:14Z</time>
      </trkpt>
      <trkpt lat="47.16635" lon="4.94307">
        <ele>306</ele>
        <time>2024-05-01T20:53:23Z</time>
      </trkpt>
      <trkpt lat="47.16538" lon="4.94147">
        <ele>310</ele>
        <time>2024-05-01T20:53:57Z</time>
      </trkpt>
      <trkpt lat="47.16506" lon="4.94184">
        <ele>308</ele>
        <time>2024-05-01T20:54:06Z</time>
      </trkpt>
      <trkpt lat="47.165" lon="4.94236">
        <ele>303</ele>
        <time>2024-05-01T20:54:15Z</time>
      </trkpt>
      <trkpt lat="47.16462" lon="4.9424">
        <ele>314</ele>
        <time>2024-05-01T20:54:24Z</time>
      </trkpt>
      <trkpt lat="47.16405" lon="4.94313">
        <ele>321</ele>
        <time>2024-05-01T20:54:41Z</time>
      </trkpt>
      <trkpt lat="47.16401" lon="4.94384">
        <ele>314</ele>
        <time>2024-05-01T20:54:53Z</time>
      </trkpt>
      <trkpt lat="47.16264" lon="4.94408">
        <ele>336</ele>
        <time>2024-05-01T20:55:25Z</time>
      </trkpt>
      <trkpt lat="47.16138" lon="4.94425">
        <ele>338</ele>
        <time>2024-05-01T20:55:54Z</time>
      </trkpt>
      <trkpt lat="47.16033" lon="4.94461">
        <ele>332</ele>
        <time>2024-05-01T20:56:20Z</time>
      </trkpt>
      <trkpt lat="47.15998" lon="4.94423">
        <ele>338</ele>
        <time>2024-05-01T20:56:30Z</time>
      </trkpt>
      <trkpt lat="47.15953" lon="4.94388">
        <ele>342</ele>
        <time>2024-05-01T20:56:42Z</time>
      </trkpt>
      <trkpt lat="47.15866" lon="4.94343">
        <ele>347</ele>
        <time>2024-05-01T20:57:03Z</time>
      </trkpt>
      <trkpt lat="47.15717" lon="4.9441">
        <ele>331</ele>
        <time>2024-05-01T20:57:40Z</time>
      </trkpt>
      <trkpt lat="47.15664" lon="4.94444">
        <ele>326</ele>
        <time>2024-05-01T20:57:53Z</time>
      </trkpt>
      <trkpt lat="47.15597" lon="4.9447">
        <ele>321</ele>
        <time>2024-05-01T20:58:09Z</time>
      </trkpt>
      <trkpt lat="47.1552" lon="4.94491">
        <ele>316</ele>
        <time>2024-05-01T20:58:27Z</time>
      </trkpt>
      <trkpt lat="47.15396" lon="4.94504">
        <ele>304</ele>
        <time>2024-05-01T20:58:57Z</time>
      </trkpt>
      <trkpt lat="47.15279" lon="4.94504">
        <ele>293</ele>
        <time>2024-05-01T20:59:24Z</time>
      </trkpt>
      <trkpt lat="47.15193" lon="4.94457">
        <ele>288</ele>
        <time>2024-05-01T20:59:45Z</time>
      </trkpt>
      <trkpt lat="47.1513" lon="4.9441">
        <ele>285</ele>
        <time>2024-05-01T21:00:02Z</time>
      </trkpt>
      <trkpt lat="47.15032" lon="4.94386">
        <ele>276</ele>
        <time>2024-05-01T21:00:25Z</time>
      </trkpt>
      <trkpt lat="47.14993" lon="4.94358">
        <ele>274</ele>
        <time>2024-05-01T21:00:35Z</time>
      </trkpt>
      <trkpt lat="47.14949" lon="4.94354">
        <ele>269</ele>
        <time>2024-05-01T21:00:45Z</time>
      </trkpt>
      <trkpt lat="47.14897" lon="4.94309">
        <ele>267</ele>
        <time>2024-05-01T21:00:59Z</time>
      </trkpt>
      <trkpt lat="47.1486" lon="4.94345">
        <ele>261</ele>
        <time>2024-05-01T21:01:10Z</time>
      </trkpt>
      <trkpt lat="47.14793" lon="4.94343">
        <ele>256</ele>
        <time>2024-05-01T21:01:25Z</time>
      </trkpt>
      <trkpt lat="47.14717" lon="4.94283">
        <ele>254</ele>
        <time>2024-05-01T21:01:46Z</time>
      </trkpt>
      <trkpt lat="47.14675" lon="4.94296">
        <ele>252</ele>
        <time>2024-05-01T21:01:56Z</time>
      </trkpt>
      <trkpt lat="47.14633" lon="4.94283">
        <ele>250</ele>
        <time>2024-05-01T21:02:06Z</time>
      </trkpt>
      <trkpt lat="47.14561" lon="4.94373">
        <ele>245</ele>
        <time>2024-05-01T21:02:28Z</time>
      </trkpt>
      <trkpt lat="47.14523" lon="4.94335">
        <ele>245</ele>
        <time>2024-05-01T21:02:38Z</time>
      </trkpt>
      <trkpt lat="47.14282" lon="4.94403">
        <ele>244</ele>
        <time>2024-05-01T21:03:36Z</time>
      </trkpt>
      <trkpt lat="47.13942" lon="4.95094">
        <ele>243</ele>
        <time>2024-05-01T21:05:51Z</time>
      </trkpt>
      <trkpt lat="47.13884" lon="4.9524">
        <ele>242</ele>
        <time>2024-05-01T21:06:18Z</time>
      </trkpt>
      <trkpt lat="47.13823" lon="4.9541">
        <ele>241</ele>
        <time>2024-05-01T21:06:49Z</time>
      </trkpt>
      <trkpt lat="47.13742" lon="4.95541">
        <ele>238</ele>
        <time>2024-05-01T21:07:17Z</time>
      </trkpt>
      <trkpt lat="47.13662" lon="4.95689">
        <ele>239</ele>
        <time>2024-05-01T21:07:47Z</time>
      </trkpt>
      <trkpt lat="47.1356" lon="4.95624">
        <ele>238</ele>
        <time>2024-05-01T21:08:13Z</time>
      </trkpt>
      <trkpt lat="47.13437" lon="4.95534">
        <ele>235</ele>
        <time>2024-05-01T21:08:45Z</time>
      </trkpt>
      <trkpt lat="47.1332" lon="4.95648">
        <ele>234</ele>
        <time>2024-05-01T21:09:18Z</time>
      </trkpt>
      <trkpt lat="47.1323" lon="4.95594">
        <ele>233</ele>
        <time>2024-05-01T21:09:40Z</time>
      </trkpt>
      <trkpt lat="47.13167" lon="4.95564">
        <ele>233</ele>
        <time>2024-05-01T21:09:56Z</time>
      </trkpt>
      <trkpt lat="47.13103" lon="4.95573">
        <ele>234</ele>
        <time>2024-05-01T21:10:11Z</time>
      </trkpt>
      <trkpt lat="47.13061" lon="4.95601">
        <ele>233</ele>
        <time>2024-05-01T21:10:22Z</time>
      </trkpt>
    </trkseg>
  </trk>
</gpx>